createdAt,value
2023-12-08T00:04:35.158Z,100567.29
2023-12-08T00:12:58.090Z,100556.39
2023-12-08T00:21:21.084Z,100561.13
2023-12-08T00:29:44.336Z,100550.29
2023-12-08T00:38:07.503Z,100544.16
2023-12-08T00:46:31.217Z,100551.57
2023-12-08T00:54:54.215Z,100550.29
2023-12-08T01:03:17.269Z,100552.11
2023-12-08T01:11:40.268Z,100534.04
2023-12-08T01:20:03.301Z,100530.98
2023-12-08T01:28:26.498Z,100529.89
2023-12-08T01:36:49.664Z,100536.34
2023-12-08T01:45:13.376Z,100539.11
2023-12-08T01:53:36.950Z,100536.81
2023-12-08T02:02:00.052Z,100536.45
2023-12-08T02:10:23.030Z,100545.04
2023-12-08T02:18:46.800Z,100544.97
2023-12-08T02:27:12.522Z,100538.35
2023-12-08T02:35:39.575Z,100539.70
2023-12-08T02:44:03.250Z,100537.74
2023-12-08T02:52:27.631Z,100535.53
2023-12-08T03:00:50.665Z,100523.55
2023-12-08T03:09:14.124Z,100526.40
2023-12-08T03:17:37.455Z,100526.35
2023-12-08T03:26:00.558Z,100527.34
2023-12-08T03:34:23.959Z,100527.99
2023-12-08T03:42:47.119Z,100537.77
2023-12-08T03:51:10.219Z,100548.24
2023-12-08T03:59:34.072Z,100558.73
2023-12-08T04:07:57.196Z,100568.33
2023-12-08T04:16:20.165Z,100566.15
2023-12-08T04:24:43.322Z,100564.48
2023-12-08T04:33:06.759Z,100558.04
2023-12-08T04:41:29.938Z,100568.10
2023-12-08T04:49:53.073Z,100574.62
2023-12-08T04:58:17.725Z,100569.63
2023-12-08T05:06:40.755Z,100556.11
2023-12-08T05:15:04.256Z,100549.77
2023-12-08T05:23:27.273Z,100544.92
2023-12-08T05:31:50.624Z,100548.20
2023-12-08T05:40:14.362Z,100549.29
2023-12-08T05:48:37.713Z,100547.86
2023-12-08T05:57:01.624Z,100545.18
2023-12-08T06:05:24.893Z,100539.41
2023-12-08T06:13:48.918Z,100532.03
2023-12-08T06:22:12.033Z,100516.71
2023-12-08T06:30:35.126Z,100513.44
2023-12-08T06:38:58.225Z,100525.95
2023-12-08T06:47:21.343Z,100537.77
2023-12-08T06:55:44.780Z,100541.39
2023-12-08T07:04:08.143Z,100531.27
2023-12-08T07:12:31.619Z,100531.30
2023-12-08T07:20:55.028Z,100529.75
2023-12-08T07:29:18.331Z,100522.52
2023-12-08T07:37:42.199Z,100516.88
2023-12-08T07:46:05.383Z,100512.93
2023-12-08T07:54:33.150Z,100510.94
2023-12-08T08:02:56.725Z,100512.64
2023-12-08T08:11:19.929Z,100517.83
2023-12-08T08:19:43.288Z,100520.70
2023-12-08T08:28:06.283Z,100524.57
2023-12-08T08:36:29.276Z,100531.16
2023-12-08T08:44:53.508Z,100539.38
2023-12-08T08:53:20.056Z,100531.51
2023-12-08T09:01:43.630Z,100532.98
2023-12-08T09:10:08.682Z,100534.16
2023-12-08T09:18:32.310Z,100529.27
2023-12-08T09:26:55.505Z,100523.83
2023-12-08T09:35:19.508Z,100524.09
2023-12-08T09:44:04.178Z,100521.61
2023-12-08T09:52:27.658Z,100515.16
2023-12-08T10:00:51.832Z,100509.79
2023-12-08T10:09:20.676Z,100494.49
2023-12-08T10:17:50.153Z,100487.36
2023-12-08T10:26:15.006Z,100481.05
2023-12-08T10:34:41.642Z,100473.17
2023-12-08T10:43:08.909Z,100476.58
2023-12-08T10:51:32.545Z,100467.52
2023-12-08T10:59:58.836Z,100474.04
2023-12-08T11:08:22.017Z,100477.52
2023-12-08T11:16:59.154Z,100457.85
2023-12-08T11:25:35.265Z,100432.20
2023-12-08T11:34:08.886Z,100417.88
2023-12-08T11:42:35.208Z,100410.26
2023-12-08T11:51:05.053Z,100399.15
2023-12-08T11:59:28.720Z,100423.64
2023-12-08T12:07:54.351Z,100408.70
2023-12-08T12:16:17.515Z,100411.40
2023-12-08T12:24:40.706Z,100421.99
2023-12-08T12:33:05.403Z,100421.63
2023-12-08T12:41:28.764Z,100422.78
2023-12-08T12:50:06.433Z,100418.52
2023-12-08T12:58:29.550Z,100415.42
2023-12-08T13:06:53.185Z,100416.06
2023-12-08T13:15:19.424Z,100418.23
2023-12-08T13:23:49.146Z,100426.59
2023-12-08T13:32:12.923Z,100403.94
2023-12-08T13:40:37.186Z,100396.05
2023-12-08T13:49:01.810Z,100395.63
2023-12-08T13:57:25.575Z,100392.38
2023-12-08T14:05:49.966Z,100386.33
2023-12-08T14:14:14.389Z,100383.92
2023-12-08T14:22:38.217Z,100387.40
2023-12-08T14:31:05.880Z,100401.66
2023-12-08T14:39:31.201Z,100406.36
2023-12-08T14:47:55.666Z,100412.50
2023-12-08T14:56:20.423Z,100405.67
2023-12-08T15:04:44.537Z,100409.28
2023-12-08T15:13:10.450Z,100404.55
2023-12-08T15:21:34.879Z,100410.69
2023-12-08T15:29:59.397Z,100404.58
2023-12-08T15:38:23.420Z,100403.64
2023-12-08T15:46:47.646Z,100404.52
2023-12-08T15:55:14.222Z,100403.25
2023-12-08T16:03:38.641Z,100400.33
2023-12-08T16:12:01.816Z,100408.16
2023-12-08T16:20:25.934Z,100406.24
2023-12-08T16:28:50.735Z,100409.34
2023-12-08T16:37:14.355Z,100424.14
2023-12-08T16:45:37.684Z,100431.50
2023-12-08T16:54:04.532Z,100422.04
2023-12-08T17:02:29.822Z,100415.39
2023-12-08T17:10:54.848Z,100417.45
2023-12-08T17:19:18.063Z,100411.63
2023-12-08T17:27:43.397Z,100416.36
2023-12-08T17:36:08.134Z,100411.98
2023-12-08T17:44:35.577Z,100404.02
2023-12-08T17:52:59.008Z,100394.04
2023-12-08T18:01:22.360Z,100393.70
2023-12-08T18:09:47.002Z,100385.03
2023-12-08T18:18:11.382Z,100387.23
2023-12-08T18:26:34.971Z,100392.55
2023-12-08T18:35:00.166Z,100392.77
2023-12-08T18:43:25.087Z,100402.85
2023-12-08T18:51:49.904Z,100402.16
2023-12-08T19:00:16.870Z,100395.34
2023-12-08T19:08:42.654Z,100400.89
2023-12-08T19:17:07.880Z,100394.01
2023-12-08T19:25:35.801Z,100389.77
2023-12-08T19:34:01.074Z,100387.98
2023-12-08T19:42:27.397Z,100401.84
2023-12-08T19:50:53.062Z,100404.92
2023-12-08T19:59:16.781Z,100404.64
2023-12-08T20:07:41.936Z,100410.53
2023-12-08T20:16:06.202Z,100411.47
2023-12-08T20:24:29.494Z,100405.64
2023-12-08T20:32:57.149Z,100395.69
2023-12-08T20:41:24.545Z,100389.54
2023-12-08T20:49:47.525Z,100392.49
2023-12-08T20:58:10.524Z,100396.32
2023-12-08T21:06:34.899Z,100399.14
2023-12-08T21:14:58.060Z,100395.86
2023-12-08T21:23:21.205Z,100392.72
2023-12-08T21:31:52.732Z,100394.21
2023-12-08T21:40:18.627Z,100395.98
2023-12-08T21:48:41.873Z,100390.02
2023-12-08T21:57:05.115Z,100385.88
2023-12-08T22:05:28.217Z,100379.66
2023-12-08T22:13:51.135Z,100373.09
2023-12-08T22:22:14.503Z,100366.98
2023-12-08T22:30:37.689Z,100367.08
2023-12-08T22:39:04.349Z,100365.61
2023-12-08T22:47:28.006Z,100366.05
2023-12-08T22:55:51.401Z,100368.69
2023-12-08T23:04:14.584Z,100366.67
2023-12-08T23:12:38.158Z,100360.27
2023-12-08T23:21:01.197Z,100359.42
2023-12-08T23:29:24.203Z,100360.09
2023-12-08T23:37:47.178Z,100349.40
2023-12-08T23:46:10.300Z,100341.27
2023-12-08T23:54:33.369Z,100326.55
